Time;durP1;ratioP1;P1;durP2;ratioP2;P2;SDS_P1;SDS_P2;PMS_P1;PMS_P2;Temp;Humidity;BMP_temperature;BMP_pressure;BME280_temperature;BME280_humidity;BME280_pressure;Samples;Min_cycle;Max_cycle;Signal;HPM_P1;HPM_P2
2022/06/12 00:00:28;;;;;;;13.93;4.43;;;14.30;99.90;;;;;;5075297;28;20055;-85
2022/06/12 00:02:55;;;;;;;11.93;3.13;;;;;;;;;;5077139;28;20079;-85
2022/06/12 00:05:23;;;;;;;7.68;2.80;;;14.20;99.90;;;;;;5076985;28;20052;-85
2022/06/12 00:07:50;;;;;;;9.60;3.65;;;;;;;;;;5077252;28;20040;-85
2022/06/12 00:10:16;;;;;;;6.40;3.50;;;14.30;99.90;;;;;;5060119;28;20044;-85
2022/06/12 00:12:44;;;;;;;8.13;3.85;;;14.00;99.90;;;;;;5060919;28;20491;-85
2022/06/12 00:15:14;;;;;;;8.35;3.50;;;14.10;99.90;;;;;;5061265;28;20472;-83
2022/06/12 00:17:43;;;;;;;12.77;3.47;;;;;;;;;;5059982;28;20048;-84
2022/06/12 00:20:13;;;;;;;6.25;3.22;;;14.30;99.90;;;;;;5076945;28;20040;-83
2022/06/12 00:22:40;;;;;;;9.10;3.38;;;14.20;99.90;;;;;;5070427;28;20495;-85
2022/06/12 00:25:09;;;;;;;9.95;4.18;;;14.20;99.90;;;;;;5059967;28;20041;-84
2022/06/12 00:27:36;;;;;;;7.45;3.33;;;14.10;99.90;;;;;;5076508;28;20055;-85
2022/06/12 00:30:03;;;;;;;10.20;3.38;;;14.10;99.90;;;;;;5060034;28;20040;-83
2022/06/12 00:32:30;;;;;;;12.63;3.75;;;;;;;;;;5084194;28;20044;-95
2022/06/12 00:34:57;;;;;;;7.93;3.13;;;;;;;;;;5067119;28;20138;-94
2022/06/12 00:37:25;;;;;;;12.25;3.45;;;13.90;99.90;;;;;;5065445;28;20076;-91
2022/06/12 00:39:52;;;;;;;7.55;3.13;;;13.90;99.90;;;;;;5064443;28;20059;-92
2022/06/12 00:42:33;;;;;;;7.47;3.45;;;14.00;99.90;;;;;;5065309;28;20110;-93
2022/06/12 00:45:03;;;;;;;9.40;3.38;;;13.80;99.90;;;;;;5081344;28;20127;-90
2022/06/12 00:47:29;;;;;;;10.65;3.05;;;;;;;;;;5083197;28;20048;-91
2022/06/12 00:50:05;;;;;;;14.80;4.28;;;;;;;;;;5065244;28;20044;-89
2022/06/12 00:52:41;;;;;;;9.30;3.42;;;;;;;;;;5082152;28;20047;-93
2022/06/12 00:55:15;;;;;;;10.45;3.47;;;;;;;;;;5065651;28;20177;-92
2022/06/12 00:57:41;;;;;;;7.22;3.47;;;;;;;;;;5080424;28;20130;-89
2022/06/12 01:00:10;;;;;;;11.10;4.00;;;;;;;;;;5064652;28;20148;-88
2022/06/12 01:02:37;;;;;;;6.38;3.33;;;13.70;99.90;;;;;;5080021;28;20051;-86
2022/06/12 01:07:55;;;;;;;8.55;3.70;;;13.80;99.90;;;;;;5079476;28;20439;-85
2022/06/12 01:10:25;;;;;;;15.38;3.85;;;13.80;99.90;;;;;;5079540;28;20040;-88
2022/06/12 01:13:16;;;;;;;8.57;3.97;;;13.60;99.90;;;;;;5060163;28;20052;-83
2022/06/12 01:15:52;;;;;;;9.73;4.28;;;;;;;;;;4995921;28;20050;-84
2022/06/12 01:18:22;;;;;;;10.90;4.07;;;13.50;99.90;;;;;;4995697;28;20124;-85
2022/06/12 01:20:51;;;;;;;12.98;4.63;;;;;;;;;;4995525;28;20053;-85
2022/06/12 01:23:35;;;;;;;12.70;3.65;;;13.60;99.90;;;;;;4995450;28;20053;-83
2022/06/12 01:26:33;;;;;;;11.02;3.95;;;13.70;99.90;;;;;;4979125;28;20060;-83
2022/06/12 01:29:11;;;;;;;8.85;3.85;;;13.70;99.90;;;;;;4965966;28;20064;-85
2022/06/12 01:31:43;;;;;;;14.73;4.10;;;;;;;;;;4978908;28;20057;-84
2022/06/12 01:34:09;;;;;;;14.27;4.00;;;;;;;;;;4996244;28;20050;-84
2022/06/12 01:36:53;;;;;;;11.40;4.13;;;13.50;99.90;;;;;;4995417;28;20100;-83
2022/06/12 01:39:28;;;;;;;10.43;3.72;;;;;;;;;;4995082;28;20058;-83
2022/06/12 01:42:00;;;;;;;8.95;3.75;;;;;;;;;;4995399;28;20402;-84
2022/06/12 01:44:38;;;;;;;10.77;3.67;;;;;;;;;;4978930;28;20054;-85
2022/06/12 01:47:16;;;;;;;6.75;3.90;;;;;;;;;;4979286;28;20050;-83
2022/06/12 01:49:54;;;;;;;11.02;4.03;;;;;;;;;;4979105;28;20136;-84
2022/06/12 01:52:39;;;;;;;10.82;4.22;;;13.40;99.90;;;;;;5008409;28;20408;-84
2022/06/12 01:55:21;;;;;;;9.57;3.60;;;13.40;99.90;;;;;;5075221;28;20074;-84
2022/06/12 01:57:58;;;;;;;9.52;3.90;;;13.50;99.90;;;;;;5075206;28;20048;-85
2022/06/12 02:00:25;;;;;;;6.20;3.45;;;13.10;99.90;;;;;;5077435;28;20071;-89
2022/06/12 02:02:55;;;;;;;9.48;3.38;;;;;;;;;;5076860;28;20120;-89
2022/06/12 02:05:37;;;;;;;7.75;3.85;;;13.40;99.90;;;;;;5077442;28;20044;-90
2022/06/12 02:08:03;;;;;;;14.18;3.38;;;;;;;;;;5061885;28;20044;-85
2022/06/12 02:10:42;;;;;;;10.88;3.67;;;13.30;99.90;;;;;;5062343;28;20047;-87
2022/06/12 02:13:21;;;;;;;12.88;3.47;;;;;;;;;;5078902;28;20498;-88
2022/06/12 02:15:59;;;;;;;11.95;3.55;;;;;;;;;;5079013;28;20152;-92
2022/06/12 02:18:38;;;;;;;10.45;4.40;;;13.30;99.90;;;;;;5062500;28;20040;-95
2022/06/12 02:21:26;;;;;;;11.23;3.70;;;13.20;99.90;;;;;;5079423;28;20047;-89
2022/06/12 02:23:55;;;;;;;10.82;3.53;;;13.30;99.90;;;;;;5082952;28;20453;-88
2022/06/12 02:26:23;;;;;;;11.18;4.32;;;;;;;;;;5084199;28;20124;-89
2022/06/12 02:28:55;;;;;;;12.75;3.75;;;13.10;99.90;;;;;;5066200;28;20071;-90
2022/06/12 02:31:26;;;;;;;10.13;3.42;;;13.10;99.90;;;;;;5065551;28;20132;-88
2022/06/12 02:33:58;;;;;;;10.50;4.00;;;13.10;99.90;;;;;;5066971;28;20518;-88
2022/06/12 02:36:41;;;;;;;9.55;4.28;;;13.20;99.90;;;;;;5067457;28;20093;-88
2022/06/12 02:39:13;;;;;;;8.73;3.65;;;;;;;;;;5065705;28;20113;-90
2022/06/12 02:41:53;;;;;;;9.88;3.33;;;13.10;99.90;;;;;;5065968;28;20430;-86
2022/06/12 02:44:36;;;;;;;15.25;4.10;;;13.00;99.90;;;;;;5082663;28;20043;-89
2022/06/12 02:47:10;;;;;;;12.35;3.92;;;13.20;99.90;;;;;;5081692;28;20463;-94
2022/06/12 02:49:38;;;;;;;14.63;4.25;;;13.20;99.90;;;;;;5081464;28;20076;-93
2022/06/12 02:52:07;;;;;;;9.73;3.65;;;;;;;;;;5081096;28;20048;-90
2022/06/12 02:54:42;;;;;;;12.18;3.53;;;;;;;;;;5064455;28;20486;-90
2022/06/12 02:57:35;;;;;;;14.20;4.18;;;13.10;99.90;;;;;;5081169;28;20495;-92
2022/06/12 03:00:13;;;;;;;14.18;5.20;;;;;;;;;;5080789;28;20135;-87
2022/06/12 03:02:53;;;;;;;18.20;4.68;;;13.10;99.90;;;;;;5064254;28;20060;-88
2022/06/12 03:05:32;;;;;;;20.17;4.97;;;13.00;99.90;;;;;;5063918;28;20126;-90
2022/06/12 03:08:00;;;;;;;10.88;3.60;;;;;;;;;;5079921;28;20036;-86
2022/06/12 03:10:37;;;;;;;10.05;4.25;;;13.00;99.90;;;;;;5064074;28;20043;-91
2022/06/12 03:13:05;;;;;;;8.65;3.67;;;;;;;;;;5080046;28;20039;-92
2022/06/12 03:15:57;;;;;;;11.43;4.05;;;;;;;;;;5063930;28;20051;-86
2022/06/12 03:18:34;;;;;;;14.00;4.22;;;;;;;;;;5060577;28;20056;-88
2022/06/12 03:21:06;;;;;;;10.70;3.85;;;;;;;;;;5080850;28;20048;-89
2022/06/12 03:23:57;;;;;;;16.48;4.57;;;12.90;99.90;;;;;;5080545;28;20048;-90
2022/06/12 03:27:00;;;;;;;14.18;4.32;;;12.80;99.90;;;;;;5064158;28;20127;-82
2022/06/12 03:29:36;;;;;;;12.70;5.18;;;12.80;99.90;;;;;;5063655;28;20048;-84
2022/06/12 03:32:33;;;;;;;12.45;4.15;;;13.00;99.90;;;;;;5078576;28;20048;-84
2022/06/12 03:35:07;;;;;;;11.73;5.05;;;;;;;;;;5077375;28;20140;-84
2022/06/12 03:37:33;;;;;;;9.25;3.63;;;;;;;;;;5060899;28;20050;-84
2022/06/12 03:39:59;;;;;;;13.93;4.93;;;;;;;;;;5061162;28;20127;-84
2022/06/12 03:42:48;;;;;;;8.98;4.10;;;13.10;99.90;;;;;;5077626;28;20123;-85
2022/06/12 03:45:24;;;;;;;9.82;4.30;;;12.90;99.90;;;;;;4997352;28;20049;-85
2022/06/12 03:48:00;;;;;;;13.13;4.05;;;13.00;99.90;;;;;;4997500;28;20506;-85
2022/06/12 03:50:59;;;;;;;10.35;3.95;;;12.90;99.90;;;;;;4997364;28;20050;-85
2022/06/12 03:53:37;;;;;;;10.38;4.22;;;;;;;;;;5013105;28;20053;-85
2022/06/12 03:59:03;;;;;;;14.55;4.32;;;;;;;;;;4997360;28;20054;-84
2022/06/12 04:01:31;;;;;;;12.90;4.32;;;13.00;99.90;;;;;;4980381;28;20064;-85
2022/06/12 04:03:58;;;;;;;14.10;4.55;;;;;;;;;;4996941;28;20532;-84
2022/06/12 04:06:26;;;;;;;16.65;4.32;;;12.90;99.90;;;;;;4996741;28;20049;-85
2022/06/12 04:08:54;;;;;;;11.70;4.25;;;;;;;;;;4996712;28;20058;-84
2022/06/12 04:11:22;;;;;;;15.75;5.35;;;;;;;;;;4996626;28;20053;-83
2022/06/12 04:13:49;;;;;;;17.25;5.05;;;;;;;;;;4980359;28;20053;-83
2022/06/12 04:16:30;;;;;;;12.48;4.57;;;;;;;;;;4980507;28;20100;-83
2022/06/12 04:18:56;;;;;;;12.68;4.55;;;;;;;;;;4980534;28;20491;-84
2022/06/12 04:21:25;;;;;;;14.98;4.57;;;;;;;;;;5007484;28;20096;-83
2022/06/12 04:24:03;;;;;;;13.93;4.18;;;;;;;;;;5076691;28;20040;-84
2022/06/12 04:26:32;;;;;;;8.25;3.92;;;;;;;;;;5060203;28;20048;-84
2022/06/12 04:29:03;;;;;;;13.90;4.15;;;;;;;;;;5076544;28;20043;-83
2022/06/12 04:31:31;;;;;;;9.90;4.25;;;;;;;;;;5059808;28;20139;-85
2022/06/12 04:34:15;;;;;;;16.23;4.20;;;13.30;99.90;;;;;;5060370;28;20040;-85
2022/06/12 04:36:44;;;;;;;13.43;3.78;;;13.40;99.90;;;;;;5076625;28;20075;-85
2022/06/12 04:39:14;;;;;;;11.27;4.47;;;;;;;;;;5077498;28;20040;-85
2022/06/12 04:41:41;;;;;;;14.60;4.80;;;;;;;;;;5059524;28;20082;-84
2022/06/12 04:44:08;;;;;;;21.33;4.93;;;13.40;99.90;;;;;;5078899;28;20139;-91
2022/06/12 04:46:35;;;;;;;15.15;4.32;;;13.30;99.90;;;;;;5077600;28;20498;-83
2022/06/12 04:49:02;;;;;;;10.68;4.63;;;;;;;;;;5077745;28;20036;-85
2022/06/12 04:51:29;;;;;;;14.10;4.50;;;;;;;;;;5060131;28;20048;-84
2022/06/12 04:53:55;;;;;;;16.48;4.50;;;;;;;;;;5076837;28;20044;-92
2022/06/12 04:56:23;;;;;;;13.38;4.88;;;13.60;99.90;;;;;;5077279;28;20071;-90
2022/06/12 04:58:49;;;;;;;14.93;4.13;;;;;;;;;;5060824;28;20040;-83
2022/06/12 05:01:15;;;;;;;14.02;4.55;;;;;;;;;;5081041;28;20051;-92
2022/06/12 05:03:41;;;;;;;17.25;4.30;;;;;;;;;;5062595;28;20051;-94
2022/06/12 05:06:08;;;;;;;16.70;4.43;;;;;;;;;;5078416;28;20067;-87
2022/06/12 05:08:35;;;;;;;12.88;4.97;;;;;;;;;;5076664;28;20572;-86
2022/06/12 05:11:01;;;;;;;16.48;4.90;;;;;;;;;;5060283;28;20056;-87
2022/06/12 05:13:27;;;;;;;16.83;4.28;;;;;;;;;;5061395;28;20079;-86
2022/06/12 05:15:53;;;;;;;14.77;5.18;;;;;;;;;;5062507;28;20040;-88
2022/06/12 05:18:20;;;;;;;16.83;4.50;;;;;;;;;;5062064;28;20609;-89
2022/06/12 05:20:46;;;;;;;16.60;5.20;;;;;;;;;;5077373;28;20110;-92
2022/06/12 05:23:12;;;;;;;15.48;5.07;;;;;;;;;;5061400;28;20044;-94
2022/06/12 05:25:40;;;;;;;14.27;4.65;;;14.00;99.90;;;;;;5075521;28;20044;-85
2022/06/12 05:28:07;;;;;;;14.73;5.10;;;;;;;;;;5075897;28;20038;-83
2022/06/12 05:30:35;;;;;;;13.02;5.20;;;14.10;99.90;;;;;;5075450;28;20070;-83
2022/06/12 05:33:01;;;;;;;15.07;4.97;;;;;;;;;;5077008;28;20422;-83
2022/06/12 05:35:29;;;;;;;12.13;5.40;;;14.20;99.90;;;;;;5060218;28;20074;-83
2022/06/12 05:37:55;;;;;;;17.70;5.55;;;;;;;;;;5075738;28;20404;-84
2022/06/12 05:40:25;;;;;;;13.90;4.57;;;14.30;99.90;;;;;;5059046;28;20062;-83
2022/06/12 05:42:51;;;;;;;21.58;5.05;;;;;;;;;;5059003;28;20449;-84
2022/06/12 05:45:20;;;;;;;14.55;5.10;;;14.70;99.90;;;;;;5058977;28;20054;-84
2022/06/12 05:47:49;;;;;;;23.70;4.93;;;;;;;;;;5059257;28;20054;-83
2022/06/12 05:50:16;;;;;;;21.65;5.38;;;14.60;99.90;;;;;;5058782;28;20075;-83
2022/06/12 05:52:43;;;;;;;16.42;4.78;;;;;;;;;;5075305;28;20044;-83
2022/06/12 05:55:09;;;;;;;16.58;6.90;;;;;;;;;;5059047;28;20079;-84
2022/06/12 05:57:35;;;;;;;20.35;6.10;;;;;;;;;;5080583;28;20073;-83
2022/06/12 06:00:02;;;;;;;15.80;5.82;;;;;;;;;;5065431;28;20048;-83
2022/06/12 06:02:27;;;;;;;18.70;6.15;;;14.80;99.90;;;;;;5065556;28;20440;-83
2022/06/12 06:04:53;;;;;;;20.83;5.65;;;;;;;;;;5081902;28;20133;-83
2022/06/12 06:07:19;;;;;;;17.85;5.97;;;;;;;;;;5065157;28;20407;-83
2022/06/12 06:09:46;;;;;;;23.92;7.32;;;;;;;;;;5082168;28;20407;-83
2022/06/12 06:12:12;;;;;;;18.60;5.30;;;;;;;;;;5066604;28;20046;-89
2022/06/12 06:14:38;;;;;;;15.15;5.80;;;;;;;;;;5083455;28;20042;-82
2022/06/12 06:17:04;;;;;;;21.77;6.15;;;;;;;;;;5083460;28;20086;-87
2022/06/12 06:19:31;;;;;;;24.20;6.10;;;;;;;;;;5066813;28;20099;-88
2022/06/12 06:21:57;;;;;;;23.90;7.10;;;;;;;;;;5067139;28;20055;-84
2022/06/12 06:24:23;;;;;;;18.58;6.85;;;;;;;;;;5083598;28;20514;-83
2022/06/12 06:26:50;;;;;;;27.55;7.85;;;;;;;;;;5066855;28;20040;-84
2022/06/12 06:29:16;;;;;;;29.63;7.70;;;;;;;;;;5084390;28;20105;-84
2022/06/12 06:31:42;;;;;;;20.50;7.25;;;;;;;;;;5067004;28;20043;-85
2022/06/12 06:34:08;;;;;;;30.58;6.72;;;;;;;;;;5083943;28;20036;-83
2022/06/12 06:36:34;;;;;;;17.90;6.45;;;;;;;;;;5083965;28;20047;-83
2022/06/12 06:39:02;;;;;;;23.65;7.43;;;;;;;;;;5083262;28;20197;-84
2022/06/12 06:41:28;;;;;;;27.83;6.90;;;;;;;;;;5067425;28;20044;-86
2022/06/12 06:46:41;;;;;;;23.48;6.75;;;;;;;;;;5083396;28;20044;-92
2022/06/12 06:49:07;;;;;;;27.77;6.40;;;16.10;99.90;;;;;;5067025;28;20044;-89
2022/06/12 06:51:33;;;;;;;19.23;6.50;;;16.30;99.90;;;;;;5067136;28;20040;-90
2022/06/12 06:54:04;;;;;;;21.23;6.93;;;;;;;;;;5084122;28;20418;-91
2022/06/12 06:56:30;;;;;;;18.15;5.65;;;;;;;;;;5083374;28;20476;-91
2022/06/12 06:58:56;;;;;;;18.40;5.72;;;;;;;;;;5083040;28;20048;-91
2022/06/12 07:01:23;;;;;;;20.83;5.93;;;;;;;;;;5065933;28;20077;-90
2022/06/12 07:03:52;;;;;;;16.02;6.03;;;;;;;;;;5066149;28;20051;-90
2022/06/12 07:06:19;;;;;;;21.02;5.03;;;16.90;99.90;;;;;;5082671;28;20101;-89
2022/06/12 07:08:45;;;;;;;19.98;4.72;;;;;;;;;;5079728;28;20040;-90
2022/06/12 07:11:11;;;;;;;9.68;5.32;;;;;;;;;;5063389;28;20048;-88
2022/06/12 07:13:37;;;;;;;16.27;4.15;;;;;;;;;;5063681;28;20105;-88
2022/06/12 07:16:04;;;;;;;19.15;5.03;;;;;;;;;;5079764;28;20403;-86
2022/06/12 07:18:30;;;;;;;11.88;4.18;;;;;;;;;;5063920;28;20043;-89
2022/06/12 07:21:00;;;;;;;17.00;4.13;;;17.10;99.90;;;;;;5063140;28;20036;-90
2022/06/12 07:23:27;;;;;;;13.80;4.18;;;;;;;;;;5078202;28;20044;-84
2022/06/12 07:25:57;;;;;;;24.45;4.18;;;17.40;99.90;;;;;;5061160;28;20055;-86
2022/06/12 07:28:24;;;;;;;15.27;4.10;;;17.40;99.90;;;;;;5077919;28;20044;-84
2022/06/12 07:30:50;;;;;;;13.82;4.45;;;17.50;99.90;;;;;;5077723;28;20385;-86
2022/06/12 07:33:17;;;;;;;13.02;4.03;;;17.60;99.90;;;;;;5077864;28;20079;-85
2022/06/12 07:35:44;;;;;;;14.02;4.55;;;;;;;;;;5061429;28;20090;-86
2022/06/12 07:38:12;;;;;;;16.88;5.30;;;17.70;99.90;;;;;;5060872;28;20043;-83
2022/06/12 07:40:43;;;;;;;18.08;5.05;;;17.90;99.90;;;;;;5060994;28;20086;-83
2022/06/12 07:43:09;;;;;;;10.65;3.75;;;;;;;;;;5078510;28;20044;-83
2022/06/12 07:45:37;;;;;;;21.77;6.88;;;17.90;99.90;;;;;;5061047;28;20425;-83
2022/06/12 07:48:03;;;;;;;18.63;5.75;;;18.00;99.90;;;;;;5060937;28;20036;-83
2022/06/12 07:50:30;;;;;;;20.08;5.63;;;;;;;;;;5060943;28;20108;-83
2022/06/12 07:52:56;;;;;;;16.48;5.13;;;;;;;;;;5077401;28;20047;-84
2022/06/12 07:55:22;;;;;;;15.90;4.88;;;18.20;99.90;;;;;;5060892;28;20028;-83
2022/06/12 07:57:48;;;;;;;17.63;4.68;;;;;;;;;;5062391;28;20483;-84
2022/06/12 08:00:16;;;;;;;12.35;4.63;;;18.10;99.90;;;;;;5077166;28;20130;-87
2022/06/12 08:02:43;;;;;;;11.40;3.70;;;18.50;99.90;;;;;;5077613;28;20056;-89
2022/06/12 08:05:10;;;;;;;15.27;4.53;;;18.70;99.90;;;;;;5078219;28;20048;-83
2022/06/12 08:07:36;;;;;;;11.30;4.00;;;;;;;;;;5077753;28;20044;-86
2022/06/12 08:10:03;;;;;;;12.38;3.70;;;18.70;99.90;;;;;;5061784;28;20044;-90
2022/06/12 08:12:31;;;;;;;12.77;3.42;;;18.60;99.90;;;;;;5078385;28;20507;-88
2022/06/12 08:14:57;;;;;;;14.88;4.35;;;;;;;;;;5061958;28;20047;-90
2022/06/12 08:17:23;;;;;;;18.75;3.78;;;;;;;;;;5077968;28;20048;-82
2022/06/12 08:22:37;;;;;;;14.32;3.35;;;;;;;;;;5078005;28;20087;-83
2022/06/12 08:25:03;;;;;;;15.05;3.95;;;18.60;99.90;;;;;;5079764;28;20040;-84
2022/06/12 08:27:29;;;;;;;12.57;3.63;;;;;;;;;;5063100;28;20062;-88
2022/06/12 08:29:55;;;;;;;18.10;4.95;;;;;;;;;;5064984;28;20127;-84
2022/06/12 08:32:22;;;;;;;13.27;4.03;;;;;;;;;;5064150;28;20058;-86
2022/06/12 08:34:55;;;;;;;12.15;3.72;;;18.80;99.90;;;;;;5064135;28;20047;-85
2022/06/12 08:37:28;;;;;;;9.27;4.30;;;19.00;99.90;;;;;;5065010;28;20040;-85
2022/06/12 08:39:54;;;;;;;6.97;3.47;;;;;;;;;;5081243;28;20048;-90
2022/06/12 08:42:24;;;;;;;10.40;3.17;;;19.10;99.90;;;;;;5080841;28;20048;-90
2022/06/12 08:44:55;;;;;;;11.38;3.70;;;19.30;99.90;;;;;;5076368;28;20052;-84
2022/06/12 08:47:32;;;;;;;14.98;3.60;;;19.10;99.90;;;;;;5060175;28;20123;-83
2022/06/12 08:50:17;;;;;;;12.95;3.95;;;19.20;99.90;;;;;;5059445;28;20044;-87
2022/06/12 08:52:52;;;;;;;23.70;5.53;;;19.00;99.90;;;;;;5059762;28;20491;-86
2022/06/12 08:55:26;;;;;;;9.02;3.33;;;18.90;99.90;;;;;;5059506;28;20032;-86
2022/06/12 08:57:54;;;;;;;9.27;3.30;;;18.80;99.90;;;;;;5058501;28;20055;-85
2022/06/12 09:00:24;;;;;;;8.68;2.78;;;19.00;99.90;;;;;;5059506;28;20048;-84
2022/06/12 09:02:50;;;;;;;17.38;3.35;;;19.10;99.90;;;;;;5059087;28;20136;-84
2022/06/12 09:05:22;;;;;;;9.77;2.80;;;19.30;99.90;;;;;;5075940;28;20510;-84
2022/06/12 09:07:54;;;;;;;8.90;4.38;;;19.40;99.90;;;;;;5059429;28;20062;-84
2022/06/12 09:10:31;;;;;;;9.45;3.00;;;19.50;99.90;;;;;;5059541;28;20396;-83
2022/06/12 09:13:06;;;;;;;9.05;2.47;;;19.50;99.90;;;;;;5076028;28;20641;-83
2022/06/12 09:15:55;;;;;;;8.63;3.83;;;19.60;99.90;;;;;;5059430;28;20145;-84
2022/06/12 09:18:49;;;;;;;10.75;2.92;;;19.40;99.90;;;;;;5075881;28;20147;-83
2022/06/12 09:21:29;;;;;;;7.72;2.80;;;19.60;99.90;;;;;;5075865;28;20044;-85
2022/06/12 09:24:10;;;;;;;9.82;3.17;;;19.40;99.90;;;;;;5058864;28;20032;-84
2022/06/12 09:26:47;;;;;;;6.18;2.20;;;19.50;99.90;;;;;;5075532;28;20051;-87
2022/06/12 09:29:44;;;;;;;4.60;2.78;;;19.60;99.90;;;;;;5060048;28;20051;-91
2022/06/12 09:32:18;;;;;;;6.00;2.20;;;19.60;99.90;;;;;;5059295;28;20048;-89
2022/06/12 09:34:44;;;;;;;5.68;2.13;;;;;;;;;;5076676;28;20066;-90
2022/06/12 09:40:26;;;;;;;5.93;2.78;;;20.00;99.90;;;;;;5076373;28;20048;-91
2022/06/12 09:43:00;;;;;;;8.32;2.58;;;19.90;99.90;;;;;;5059785;28;20080;-86
2022/06/12 09:45:29;;;;;;;;;;;20.00;99.90;;;;;;5059861;28;20105;-91
2022/06/12 09:48:24;;;;;;;7.13;2.50;;;20.00;99.90;;;;;;5076353;28;20396;-84
2022/06/12 09:51:09;;;;;;;5.30;2.42;;;20.00;99.90;;;;;;5058865;28;20044;-86
2022/06/12 09:53:49;;;;;;;3.88;2.28;;;20.00;99.90;;;;;;5059305;28;20058;-87
2022/06/12 09:56:27;;;;;;;5.55;2.58;;;20.00;99.90;;;;;;5076347;28;20039;-86
2022/06/12 09:59:25;;;;;;;8.27;2.13;;;19.90;99.90;;;;;;5060033;28;20062;-83
2022/06/12 10:01:57;;;;;;;4.75;1.95;;;19.80;99.90;;;;;;4979859;28;20045;-85
2022/06/12 10:04:27;;;;;;;5.07;2.83;;;20.10;99.90;;;;;;5012840;28;20108;-93
2022/06/12 10:06:58;;;;;;;8.05;2.15;;;20.10;99.90;;;;;;4996325;28;20140;-90
2022/06/12 10:09:38;;;;;;;7.03;3.13;;;20.20;99.90;;;;;;4996420;28;20081;-90
2022/06/12 10:12:14;;;;;;;7.55;2.10;;;19.90;99.90;;;;;;4979996;28;20145;-82
2022/06/12 10:14:48;;;;;;;8.77;2.88;;;20.10;99.90;;;;;;4995535;28;20038;-84
2022/06/12 10:17:42;;;;;;;5.78;2.13;;;20.10;99.90;;;;;;4995627;28;20042;-84
2022/06/12 10:20:20;;;;;;;7.97;2.25;;;20.00;99.90;;;;;;4995791;28;20089;-85
2022/06/12 10:22:51;;;;;;;3.17;1.90;;;20.20;99.90;;;;;;4995273;28;20509;-86
2022/06/12 10:25:33;;;;;;;6.70;1.98;;;20.20;99.90;;;;;;4995473;28;20514;-84
2022/06/12 10:28:18;;;;;;;5.53;2.20;;;20.10;99.90;;;;;;4979802;28;20041;-85
2022/06/12 10:30:57;;;;;;;5.32;2.55;;;20.10;99.90;;;;;;4994890;28;20045;-84
2022/06/12 10:33:31;;;;;;;9.40;2.75;;;19.70;99.90;;;;;;4995658;28;20079;-85
2022/06/12 10:35:58;;;;;;;;;;;20.00;99.90;;;;;;5012053;28;20038;-86
2022/06/12 10:38:28;;;;;;;6.20;2.40;;;20.00;99.90;;;;;;5043832;28;19927;-85
2022/06/12 10:40:56;;;;;;;10.05;2.60;;;19.80;99.90;;;;;;5075209;28;20040;-84
2022/06/12 10:43:36;;;;;;;11.18;2.63;;;20.10;99.90;;;;;;5060604;28;20048;-84
2022/06/12 10:46:06;;;;;;;4.45;2.15;;;20.00;99.90;;;;;;5062507;28;20101;-84
2022/06/12 10:48:35;;;;;;;4.03;1.85;;;19.90;99.90;;;;;;5062869;28;20407;-84
2022/06/12 10:51:21;;;;;;;4.00;2.00;;;20.30;99.90;;;;;;5062262;28;20097;-88
2022/06/12 10:53:48;;;;;;;5.55;2.53;;;;;;;;;;5062609;28;20097;-86
2022/06/12 10:56:26;;;;;;;6.53;2.90;;;20.40;99.90;;;;;;5062964;28;20392;-85
2022/06/12 10:59:26;;;;;;;4.75;2.47;;;20.60;99.90;;;;;;5062961;28;20048;-84
2022/06/12 11:02:06;;;;;;;7.50;2.53;;;20.50;99.90;;;;;;5078969;28;20082;-84
2022/06/12 11:04:56;;;;;;;7.68;2.53;;;20.30;99.90;;;;;;5097438;28;20052;-84
2022/06/12 11:07:41;;;;;;;4.97;1.70;;;20.70;99.90;;;;;;5078859;28;20048;-86
2022/06/12 11:10:30;;;;;;;6.45;1.90;;;20.50;99.90;;;;;;5063520;28;20044;-86
2022/06/12 11:13:14;;;;;;;6.70;2.35;;;20.80;99.90;;;;;;5079010;28;20042;-83
2022/06/12 11:15:48;;;;;;;8.07;2.20;;;21.00;99.90;;;;;;5061932;28;20044;-85
2022/06/12 11:18:22;;;;;;;6.38;2.28;;;20.80;99.90;;;;;;5062281;28;20043;-84
2022/06/12 11:21:01;;;;;;;4.25;2.17;;;20.30;99.90;;;;;;5096496;28;20048;-85
2022/06/12 11:23:48;;;;;;;5.97;2.30;;;20.60;99.90;;;;;;5078626;28;20148;-85
2022/06/12 11:26:36;;;;;;;7.90;2.83;;;20.20;99.90;;;;;;5079806;28;20087;-86
2022/06/12 11:29:19;;;;;;;5.57;2.17;;;20.60;99.90;;;;;;5063085;28;20459;-84
2022/06/12 11:32:18;;;;;;;11.48;3.15;;;20.40;99.90;;;;;;5077953;28;20040;-83
2022/06/12 11:34:57;;;;;;;8.88;2.65;;;20.50;99.90;;;;;;5096448;28;20040;-84
2022/06/12 11:37:45;;;;;;;3.92;2.28;;;20.40;99.90;;;;;;5078230;28;20058;-84
2022/06/12 11:40:30;;;;;;;6.38;2.05;;;20.10;99.90;;;;;;5061675;28;20044;-84
2022/06/12 11:43:22;;;;;;;4.28;2.03;;;20.30;99.90;;;;;;5096395;28;20051;-85
2022/06/12 11:46:19;;;;;;;5.47;1.95;;;20.40;99.90;;;;;;5096241;28;20040;-86
2022/06/12 11:48:53;;;;;;;7.25;2.38;;;20.30;99.90;;;;;;5061413;28;20067;-84
2022/06/12 11:51:41;;;;;;;9.23;2.38;;;20.20;99.90;;;;;;5078657;28;20079;-83
2022/06/12 11:54:19;;;;;;;8.00;2.70;;;20.60;99.90;;;;;;5095188;28;20032;-83
2022/06/12 11:56:50;;;;;;;9.35;2.40;;;20.90;99.90;;;;;;5061464;28;20135;-84
2022/06/12 11:59:53;;;;;;;3.75;2.10;;;20.60;99.90;;;;;;5078152;28;20036;-84
2022/06/12 12:02:31;;;;;;;5.63;2.40;;;20.40;99.90;;;;;;4997508;28;20058;-82
2022/06/12 12:05:23;;;;;;;10.35;2.22;;;20.10;99.90;;;;;;4981017;28;20053;-86
2022/06/12 12:07:58;;;;;;;4.88;2.08;;;20.20;99.90;;;;;;5014332;28;20077;-86
2022/06/12 12:10:30;;;;;;;6.93;2.40;;;20.20;99.90;;;;;;5014620;28;20502;-84
2022/06/12 12:13:05;;;;;;;6.45;1.83;;;20.40;99.90;;;;;;4982174;28;20045;-85
2022/06/12 12:15:44;;;;;;;5.80;2.30;;;20.30;99.90;;;;;;4999409;28;20054;-85
2022/06/12 12:18:20;;;;;;;5.97;1.95;;;20.30;99.90;;;;;;5014556;28;20050;-86
2022/06/12 12:20:48;;;;;;;6.60;2.22;;;20.40;99.90;;;;;;4982000;28;20114;-85
2022/06/12 12:23:30;;;;;;;5.82;2.28;;;20.60;99.90;;;;;;5014479;28;20037;-85
2022/06/12 12:26:33;;;;;;;6.43;2.28;;;20.90;99.90;;;;;;4997735;28;20093;-85
2022/06/12 12:29:02;;;;;;;3.78;2.05;;;21.10;99.90;;;;;;5014337;28;20443;-86
2022/06/12 12:31:29;;;;;;;8.43;2.25;;;20.90;99.90;;;;;;4997591;28;20097;-85
2022/06/12 12:33:59;;;;;;;5.00;2.25;;;20.90;99.90;;;;;;4998175;28;20041;-85
2022/06/12 12:42:34;;;;;;;6.30;2.28;;;20.70;99.90;;;;;;5077644;28;20059;-84
2022/06/12 12:45:15;;;;;;;3.85;1.52;;;21.00;99.90;;;;;;5060213;28;20142;-85
2022/06/12 12:47:41;;;;;;;6.60;2.40;;;;;;;;;;5061411;28;20043;-86
2022/06/12 12:50:14;;;;;;;6.32;2.10;;;21.00;99.90;;;;;;5061430;28;20263;-84
2022/06/12 12:52:51;;;;;;;12.07;2.83;;;21.30;99.90;;;;;;5078961;28;20055;-85
2022/06/12 12:55:40;;;;;;;8.32;2.55;;;20.90;99.90;;;;;;5079227;28;20048;-83
2022/06/12 12:58:19;;;;;;;2.90;1.70;;;21.00;99.90;;;;;;5078166;28;20527;-84
2022/06/12 13:00:46;;;;;;;4.45;2.25;;;21.00;99.90;;;;;;5096558;28;20093;-84
2022/06/12 13:03:31;;;;;;;8.82;2.50;;;20.90;99.90;;;;;;5061360;28;20430;-84
2022/06/12 13:06:00;;;;;;;9.93;2.03;;;20.80;99.90;;;;;;5078803;28;20052;-85
2022/06/12 13:08:26;;;;;;;9.48;2.58;;;;;;;;;;5079258;28;20054;-84
2022/06/12 13:11:22;;;;;;;4.45;2.45;;;20.80;99.90;;;;;;5097917;28;20062;-84
2022/06/12 13:14:10;;;;;;;6.13;2.38;;;20.80;99.90;;;;;;5079604;28;20504;-83
2022/06/12 13:17:07;;;;;;;7.63;2.88;;;20.70;99.90;;;;;;5079685;28;20044;-85
2022/06/12 14:11:38;;;;;;;8.50;3.60;;;20.00;99.90;;;;;;5566951;24;20057;-87
2022/06/12 14:14:33;;;;;;;8.90;3.05;;;20.10;99.90;;;;;;4808139;29;20137;-87
2022/06/12 14:17:00;;;;;;;10.80;3.35;;;;;;;;;;4810365;29;20050;-88
2022/06/12 14:19:28;;;;;;;10.95;3.45;;;20.00;99.90;;;;;;4816085;29;20042;-89
2022/06/12 14:22:15;;;;;;;9.95;3.13;;;20.00;99.90;;;;;;4813962;29;20091;-88
2022/06/12 14:24:41;;;;;;;9.18;3.33;;;;;;;;;;4829530;29;20614;-85
2022/06/12 14:27:36;;;;;;;6.38;2.88;;;19.60;99.90;;;;;;4813202;29;20384;-88
2022/06/12 14:30:03;;;;;;;10.27;3.22;;;19.90;99.90;;;;;;4795726;29;20073;-89
2022/06/12 14:32:30;;;;;;;11.25;4.15;;;19.80;99.90;;;;;;4813393;29;20054;-87
2022/06/12 14:35:05;;;;;;;5.65;2.88;;;19.90;99.90;;;;;;4811224;29;20054;-88
2022/06/12 14:37:31;;;;;;;14.75;3.30;;;;;;;;;;4814492;29;20041;-88
2022/06/12 14:40:15;;;;;;;13.55;3.45;;;20.10;99.90;;;;;;4847775;29;20526;-88
2022/06/12 14:42:41;;;;;;;7.15;3.25;;;;;;;;;;4826759;29;20065;-88
2022/06/12 14:45:13;;;;;;;10.82;4.18;;;20.20;99.90;;;;;;4829938;29;20098;-89
2022/06/12 14:47:49;;;;;;;5.20;2.70;;;20.20;99.90;;;;;;4826704;29;20062;-86
2022/06/12 14:50:15;;;;;;;4.35;3.03;;;;;;;;;;4828788;29;20407;-87
2022/06/12 14:52:41;;;;;;;9.40;3.53;;;;;;;;;;4813063;29;20061;-87
2022/06/12 14:55:09;;;;;;;10.48;3.75;;;20.10;99.90;;;;;;4809549;29;20566;-86
2022/06/12 14:57:36;;;;;;;6.68;2.65;;;20.10;99.90;;;;;;4826978;29;20042;-87
2022/06/12 15:00:04;;;;;;;5.88;2.65;;;20.00;99.90;;;;;;4810369;29;20086;-86
2022/06/12 15:02:31;;;;;;;8.55;3.00;;;20.20;99.90;;;;;;4826714;29;20093;-86
2022/06/12 15:04:59;;;;;;;11.18;3.08;;;20.00;99.90;;;;;;4830491;29;20053;-87
2022/06/12 15:07:26;;;;;;;8.48;2.90;;;;;;;;;;4813948;29;20501;-87